sensor_id;sensor_type;location;lat;lon;timestamp;temperature;humidity
16477;DHT22;8349;50.928;6.376;2022-12-18T04:02:46;-5.80;99.90
16477;DHT22;8349;50.928;6.376;2022-12-18T04:05:20;-5.80;99.90
16477;DHT22;8349;50.928;6.376;2022-12-18T04:07:49;-5.80;99.90
16477;DHT22;8349;50.928;6.376;2022-12-18T04:10:18;-5.80;99.90
16477;DHT22;8349;50.928;6.376;2022-12-18T04:12:45;-5.80;99.90
16477;DHT22;8349;50.928;6.376;2022-12-18T04:15:13;-5.80;99.90
16477;DHT22;8349;50.928;6.376;2022-12-18T04:17:43;-5.70;99.90
16477;DHT22;8349;50.928;6.376;2022-12-18T04:20:14;-5.80;99.90
16477;DHT22;8349;50.928;6.376;2022-12-18T04:22:43;-5.90;99.90
16477;DHT22;8349;50.928;6.376;2022-12-18T04:25:10;-5.80;99.90
16477;DHT22;8349;50.928;6.376;2022-12-18T04:27:40;-5.80;99.90
16477;DHT22;8349;50.928;6.376;2022-12-18T04:30:08;-5.80;99.90
16477;DHT22;8349;50.928;6.376;2022-12-18T04:32:34;-5.90;99.90
16477;DHT22;8349;50.928;6.376;2022-12-18T04:35:02;-6.00;99.90
16477;DHT22;8349;50.928;6.376;2022-12-18T04:37:32;-6.00;99.90
16477;DHT22;8349;50.928;6.376;2022-12-18T04:39:59;-6.00;99.90
16477;DHT22;8349;50.928;6.376;2022-12-18T04:42:33;-6.10;99.90
16477;DHT22;8349;50.928;6.376;2022-12-18T04:44:59;-6.10;99.90
16477;DHT22;8349;50.928;6.376;2022-12-18T04:47:26;-6.20;99.90
16477;DHT22;8349;50.928;6.376;2022-12-18T04:49:53;-6.20;99.90
16477;DHT22;8349;50.928;6.376;2022-12-18T04:52:19;-6.20;99.90
16477;DHT22;8349;50.928;6.376;2022-12-18T04:54:47;-6.20;99.90
16477;DHT22;8349;50.928;6.376;2022-12-18T04:57:14;-6.10;99.90
16477;DHT22;8349;50.928;6.376;2022-12-18T04:59:40;-6.10;99.90
16477;DHT22;8349;50.928;6.376;2022-12-18T05:02:07;-6.00;99.90
16477;DHT22;8349;50.928;6.376;2022-12-18T05:04:33;-6.10;99.90
16477;DHT22;8349;50.928;6.376;2022-12-18T05:07:00;-6.20;99.90
16477;DHT22;8349;50.928;6.376;2022-12-18T05:09:27;-6.20;99.90
16477;DHT22;8349;50.928;6.376;2022-12-18T05:11:55;-6.10;99.90
16477;DHT22;8349;50.928;6.376;2022-12-18T05:14:21;-6.10;99.90
16477;DHT22;8349;50.928;6.376;2022-12-18T05:16:48;-6.00;99.90
16477;DHT22;8349;50.928;6.376;2022-12-18T05:19:15;-6.10;99.90
16477;DHT22;8349;50.928;6.376;2022-12-18T05:21:41;-6.00;99.90
16477;DHT22;8349;50.928;6.376;2022-12-18T05:24:08;-6.00;99.90
16477;DHT22;8349;50.928;6.376;2022-12-18T05:26:35;-6.00;99.90
16477;DHT22;8349;50.928;6.376;2022-12-18T05:29:02;-5.80;99.90
16477;DHT22;8349;50.928;6.376;2022-12-18T05:31:29;-5.80;99.90
16477;DHT22;8349;50.928;6.376;2022-12-18T05:33:56;-5.80;99.90
16477;DHT22;8349;50.928;6.376;2022-12-18T05:36:22;-5.80;99.90
16477;DHT22;8349;50.928;6.376;2022-12-18T05:38:49;-5.90;99.90
16477;DHT22;8349;50.928;6.376;2022-12-18T05:41:15;-5.90;99.90
16477;DHT22;8349;50.928;6.376;2022-12-18T05:43:42;-5.90;99.90
16477;DHT22;8349;50.928;6.376;2022-12-18T05:46:12;-5.90;99.90
16477;DHT22;8349;50.928;6.376;2022-12-18T05:48:39;-5.90;99.90
16477;DHT22;8349;50.928;6.376;2022-12-18T05:51:06;-6.00;99.90
16477;DHT22;8349;50.928;6.376;2022-12-18T05:53:33;-6.00;99.90
16477;DHT22;8349;50.928;6.376;2022-12-18T05:56:00;-6.00;99.90
16477;DHT22;8349;50.928;6.376;2022-12-18T05:58:27;-6.00;99.90
16477;DHT22;8349;50.928;6.376;2022-12-18T06:00:53;-6.00;99.90
16477;DHT22;8349;50.928;6.376;2022-12-18T06:03:21;-6.10;99.90
16477;DHT22;8349;50.928;6.376;2022-12-18T06:05:48;-6.10;99.90
16477;DHT22;8349;50.928;6.376;2022-12-18T06:08:14;-6.10;99.90
16477;DHT22;8349;50.928;6.376;2022-12-18T06:10:41;-6.10;99.90
16477;DHT22;8349;50.928;6.376;2022-12-18T06:13:08;-6.00;99.90
16477;DHT22;8349;50.928;6.376;2022-12-18T06:15:35;-6.00;99.90
16477;DHT22;8349;50.928;6.376;2022-12-18T06:18:02;-6.00;99.90
16477;DHT22;8349;50.928;6.376;2022-12-18T06:20:30;-6.00;99.90
16477;DHT22;8349;50.928;6.376;2022-12-18T06:22:57;-6.10;99.90
16477;DHT22;8349;50.928;6.376;2022-12-18T06:25:24;-6.20;99.90
16477;DHT22;8349;50.928;6.376;2022-12-18T06:27:50;-6.20;99.90
16477;DHT22;8349;50.928;6.376;2022-12-18T06:30:17;-6.30;99.90
16477;DHT22;8349;50.928;6.376;2022-12-18T06:32:44;-6.30;99.90
16477;DHT22;8349;50.928;6.376;2022-12-18T06:35:11;-6.30;99.90
16477;DHT22;8349;50.928;6.376;2022-12-18T06:37:39;-6.20;99.90
16477;DHT22;8349;50.928;6.376;2022-12-18T06:40:06;-6.10;99.90
16477;DHT22;8349;50.928;6.376;2022-12-18T06:42:33;-6.00;99.90
16477;DHT22;8349;50.928;6.376;2022-12-18T06:44:59;-6.00;99.90
16477;DHT22;8349;50.928;6.376;2022-12-18T06:47:26;-5.90;99.90
16477;DHT22;8349;50.928;6.376;2022-12-18T06:49:53;-5.90;99.90
16477;DHT22;8349;50.928;6.376;2022-12-18T06:52:20;-5.80;99.90
16477;DHT22;8349;50.928;6.376;2022-12-18T06:54:48;-5.70;99.90
16477;DHT22;8349;50.928;6.376;2022-12-18T06:57:15;-5.70;99.90
16477;DHT22;8349;50.928;6.376;2022-12-18T06:59:41;-5.60;99.90
16477;DHT22;8349;50.928;6.376;2022-12-18T07:02:10;-5.50;99.90
16477;DHT22;8349;50.928;6.376;2022-12-18T07:04:37;-5.50;99.90
16477;DHT22;8349;50.928;6.376;2022-12-18T07:07:03;-5.50;99.90
16477;DHT22;8349;50.928;6.376;2022-12-18T07:09:30;-5.60;99.90
16477;DHT22;8349;50.928;6.376;2022-12-18T07:11:58;-5.50;99.90
16477;DHT22;8349;50.928;6.376;2022-12-18T07:14:25;-5.60;99.90
16477;DHT22;8349;50.928;6.376;2022-12-18T07:16:52;-5.60;99.90
16477;DHT22;8349;50.928;6.376;2022-12-18T07:19:19;-5.40;99.90
16477;DHT22;8349;50.928;6.376;2022-12-18T07:21:45;-5.40;99.90
16477;DHT22;8349;50.928;6.376;2022-12-18T07:24:12;-5.40;99.90
16477;DHT22;8349;50.928;6.376;2022-12-18T07:26:39;-5.30;99.90
16477;DHT22;8349;50.928;6.376;2022-12-18T07:29:07;-5.30;99.90
16477;DHT22;8349;50.928;6.376;2022-12-18T07:31:34;-5.40;99.90
16477;DHT22;8349;50.928;6.376;2022-12-18T07:34:01;-5.40;99.90
16477;DHT22;8349;50.928;6.376;2022-12-18T07:36:28;-5.40;99.90
16477;DHT22;8349;50.928;6.376;2022-12-18T07:38:54;-5.40;99.90
16477;DHT22;8349;50.928;6.376;2022-12-18T07:41:21;-5.30;99.90
16477;DHT22;8349;50.928;6.376;2022-12-18T07:43:48;-5.30;99.90
16477;DHT22;8349;50.928;6.376;2022-12-18T07:46:16;-5.20;99.90
16477;DHT22;8349;50.928;6.376;2022-12-18T07:48:43;-5.20;99.90
16477;DHT22;8349;50.928;6.376;2022-12-18T07:51:10;-5.10;99.90
16477;DHT22;8349;50.928;6.376;2022-12-18T07:53:37;-5.10;99.90
16477;DHT22;8349;50.928;6.376;2022-12-18T07:56:05;-5.10;99.90
16477;DHT22;8349;50.928;6.376;2022-12-18T07:58:32;-5.00;99.90
16477;DHT22;8349;50.928;6.376;2022-12-18T08:01:02;-4.90;99.90
16477;DHT22;8349;50.928;6.376;2022-12-18T08:03:30;-4.90;99.90
16477;DHT22;8349;50.928;6.376;2022-12-18T08:05:58;-4.80;99.90
16477;DHT22;8349;50.928;6.376;2022-12-18T08:08:25;-4.70;99.90
16477;DHT22;8349;50.928;6.376;2022-12-18T08:10:51;-4.70;99.90
16477;DHT22;8349;50.928;6.376;2022-12-18T08:13:18;-4.60;99.90
16477;DHT22;8349;50.928;6.376;2022-12-18T08:15:45;-4.60;99.90
16477;DHT22;8349;50.928;6.376;2022-12-18T08:18:12;-4.50;99.90
16477;DHT22;8349;50.928;6.376;2022-12-18T08:20:40;-4.50;99.90
16477;DHT22;8349;50.928;6.376;2022-12-18T08:23:08;-4.50;99.90
16477;DHT22;8349;50.928;6.376;2022-12-18T08:25:35;-4.40;99.90
16477;DHT22;8349;50.928;6.376;2022-12-18T08:28:01;-4.40;99.90
16477;DHT22;8349;50.928;6.376;2022-12-18T08:30:28;-4.40;99.90
16477;DHT22;8349;50.928;6.376;2022-12-18T08:32:55;-4.40;99.90
16477;DHT22;8349;50.928;6.376;2022-12-18T08:35:22;-4.30;99.90
16477;DHT22;8349;50.928;6.376;2022-12-18T08:37:50;-4.30;99.90
16477;DHT22;8349;50.928;6.376;2022-12-18T08:40:17;-4.30;99.90
16477;DHT22;8349;50.928;6.376;2022-12-18T08:42:43;-4.20;99.90
16477;DHT22;8349;50.928;6.376;2022-12-18T08:45:28;-4.10;99.90
16477;DHT22;8349;50.928;6.376;2022-12-18T08:47:54;-4.00;99.90
16477;DHT22;8349;50.928;6.376;2022-12-18T08:50:21;-3.80;99.90
16477;DHT22;8349;50.928;6.376;2022-12-18T08:52:49;-3.70;99.90
16477;DHT22;8349;50.928;6.376;2022-12-18T08:55:16;-3.60;99.90
16477;DHT22;8349;50.928;6.376;2022-12-18T08:57:43;-3.50;99.90
16477;DHT22;8349;50.928;6.376;2022-12-18T09:00:14;-3.40;99.90
16477;DHT22;8349;50.928;6.376;2022-12-18T09:02:41;-3.30;99.90
16477;DHT22;8349;50.928;6.376;2022-12-18T09:05:08;-3.30;99.90
16477;DHT22;8349;50.928;6.376;2022-12-18T09:07:35;-3.30;99.90
16477;DHT22;8349;50.928;6.376;2022-12-18T09:10:04;-3.40;99.90
16477;DHT22;8349;50.928;6.376;2022-12-18T09:12:30;-3.30;99.90
16477;DHT22;8349;50.928;6.376;2022-12-18T09:14:57;-3.30;99.90
16477;DHT22;8349;50.928;6.376;2022-12-18T09:17:24;-3.10;99.90
16477;DHT22;8349;50.928;6.376;2022-12-18T09:19:51;-3.00;99.90
16477;DHT22;8349;50.928;6.376;2022-12-18T09:22:18;-2.80;99.90
16477;DHT22;8349;50.928;6.376;2022-12-18T09:24:45;-2.60;99.90
16477;DHT22;8349;50.928;6.376;2022-12-18T09:27:13;-2.60;99.90
16477;DHT22;8349;50.928;6.376;2022-12-18T09:29:40;-2.50;99.90
16477;DHT22;8349;50.928;6.376;2022-12-18T09:32:07;-2.40;99.90
16477;DHT22;8349;50.928;6.376;2022-12-18T09:34:33;-2.40;99.90
16477;DHT22;8349;50.928;6.376;2022-12-18T09:37:00;-2.40;99.90
16477;DHT22;8349;50.928;6.376;2022-12-18T09:39:27;-2.30;99.90
16477;DHT22;8349;50.928;6.376;2022-12-18T09:41:54;-2.30;99.90
16477;DHT22;8349;50.928;6.376;2022-12-18T09:44:24;-2.20;99.90
16477;DHT22;8349;50.928;6.376;2022-12-18T09:46:54;-2.00;99.90
16477;DHT22;8349;50.928;6.376;2022-12-18T09:49:26;-1.80;99.90
16477;DHT22;8349;50.928;6.376;2022-12-18T09:51:54;-1.70;99.90
16477;DHT22;8349;50.928;6.376;2022-12-18T09:54:22;-1.60;99.90
16477;DHT22;8349;50.928;6.376;2022-12-18T09:56:52;-1.50;99.90
16477;DHT22;8349;50.928;6.376;2022-12-18T09:59:21;-1.40;99.90
16477;DHT22;8349;50.928;6.376;2022-12-18T10:01:51;-1.20;99.90
16477;DHT22;8349;50.928;6.376;2022-12-18T10:04:18;-1.00;99.90
16477;DHT22;8349;50.928;6.376;2022-12-18T10:06:46;-0.90;99.90
16477;DHT22;8349;50.928;6.376;2022-12-18T10:09:16;-0.60;99.90
16477;DHT22;8349;50.928;6.376;2022-12-18T10:11:48;-0.40;99.90
16477;DHT22;8349;50.928;6.376;2022-12-18T10:14:16;-0.30;99.90
16477;DHT22;8349;50.928;6.376;2022-12-18T10:16:47;0.00;99.90
16477;DHT22;8349;50.928;6.376;2022-12-18T10:19:26;0.20;99.90
16477;DHT22;8349;50.928;6.376;2022-12-18T10:21:58;0.20;99.90
16477;DHT22;8349;50.928;6.376;2022-12-18T10:24:29;0.80;99.90
16477;DHT22;8349;50.928;6.376;2022-12-18T10:26:59;1.40;99.90
16477;DHT22;8349;50.928;6.376;2022-12-18T10:29:34;1.80;99.90
16477;DHT22;8349;50.928;6.376;2022-12-18T10:32:00;2.40;99.90
16477;DHT22;8349;50.928;6.376;2022-12-18T10:34:29;2.20;99.90
16477;DHT22;8349;50.928;6.376;2022-12-18T10:36:55;2.50;99.90
16477;DHT22;8349;50.928;6.376;2022-12-18T10:39:23;2.40;99.90
16477;DHT22;8349;50.928;6.376;2022-12-18T10:41:51;2.00;99.90
16477;DHT22;8349;50.928;6.376;2022-12-18T10:44:19;1.90;99.90
16477;DHT22;8349;50.928;6.376;2022-12-18T10:46:46;1.80;99.90
16477;DHT22;8349;50.928;6.376;2022-12-18T10:49:18;1.60;99.90
16477;DHT22;8349;50.928;6.376;2022-12-18T10:51:47;1.70;99.90
16477;DHT22;8349;50.928;6.376;2022-12-18T10:54:14;1.70;99.90
16477;DHT22;8349;50.928;6.376;2022-12-18T10:56:41;1.80;99.90
16477;DHT22;8349;50.928;6.376;2022-12-18T10:59:09;2.00;99.90
16477;DHT22;8349;50.928;6.376;2022-12-18T11:01:45;2.00;99.90
16477;DHT22;8349;50.928;6.376;2022-12-18T11:04:15;1.80;99.90
16477;DHT22;8349;50.928;6.376;2022-12-18T11:06:53;1.70;99.90
16477;DHT22;8349;50.928;6.376;2022-12-18T11:09:22;1.40;99.90
16477;DHT22;8349;50.928;6.376;2022-12-18T11:11:49;1.30;99.90
16477;DHT22;8349;50.928;6.376;2022-12-18T11:14:18;0.90;99.90
16477;DHT22;8349;50.928;6.376;2022-12-18T11:16:46;0.80;99.90
16477;DHT22;8349;50.928;6.376;2022-12-18T11:19:20;0.80;99.90
16477;DHT22;8349;50.928;6.376;2022-12-18T11:21:47;0.70;99.90
16477;DHT22;8349;50.928;6.376;2022-12-18T11:24:20;0.60;99.90
16477;DHT22;8349;50.928;6.376;2022-12-18T11:26:49;0.60;99.90
16477;DHT22;8349;50.928;6.376;2022-12-18T11:29:16;0.50;99.90
16477;DHT22;8349;50.928;6.376;2022-12-18T11:31:44;0.50;99.90
16477;DHT22;8349;50.928;6.376;2022-12-18T11:34:11;0.40;99.90
16477;DHT22;8349;50.928;6.376;2022-12-18T11:36:41;0.30;99.90
16477;DHT22;8349;50.928;6.376;2022-12-18T11:39:10;0.30;99.90
16477;DHT22;8349;50.928;6.376;2022-12-18T11:41:41;0.20;99.90
16477;DHT22;8349;50.928;6.376;2022-12-18T11:44:28;0.20;99.90
16477;DHT22;8349;50.928;6.376;2022-12-18T11:46:59;0.20;99.90
16477;DHT22;8349;50.928;6.376;2022-12-18T11:49:28;0.20;99.90
16477;DHT22;8349;50.928;6.376;2022-12-18T11:52:00;0.10;99.90
16477;DHT22;8349;50.928;6.376;2022-12-18T11:54:28;0.00;99.90
16477;DHT22;8349;50.928;6.376;2022-12-18T11:56:58;0.00;99.90
16477;DHT22;8349;50.928;6.376;2022-12-18T11:59:32;0.10;99.90
16477;DHT22;8349;50.928;6.376;2022-12-18T12:02:02;0.10;99.90
16477;DHT22;8349;50.928;6.376;2022-12-18T12:04:41;0.10;99.90
16477;DHT22;8349;50.928;6.376;2022-12-18T12:07:13;0.10;99.90
16477;DHT22;8349;50.928;6.376;2022-12-18T12:09:44;0.10;99.90
16477;DHT22;8349;50.928;6.376;2022-12-18T12:12:20;0.10;99.90
16477;DHT22;8349;50.928;6.376;2022-12-18T12:14:52;0.00;99.90
16477;DHT22;8349;50.928;6.376;2022-12-18T12:17:23;0.00;99.90
16477;DHT22;8349;50.928;6.376;2022-12-18T12:19:53;0.00;99.90
16477;DHT22;8349;50.928;6.376;2022-12-18T12:22:27;0.00;99.90
16477;DHT22;8349;50.928;6.376;2022-12-18T12:24:59;0.10;99.90
16477;DHT22;8349;50.928;6.376;2022-12-18T12:27:32;0.10;99.90
16477;DHT22;8349;50.928;6.376;2022-12-18T12:30:04;0.20;99.90
16477;DHT22;8349;50.928;6.376;2022-12-18T12:32:35;0.30;99.90
16477;DHT22;8349;50.928;6.376;2022-12-18T12:35:08;0.40;99.90
16477;DHT22;8349;50.928;6.376;2022-12-18T12:37:42;0.50;99.90
16477;DHT22;8349;50.928;6.376;2022-12-18T12:40:14;0.60;99.90
16477;DHT22;8349;50.928;6.376;2022-12-18T12:42:44;0.70;99.90
16477;DHT22;8349;50.928;6.376;2022-12-18T12:45:32;0.80;99.90
16477;DHT22;8349;50.928;6.376;2022-12-18T12:48:00;0.90;99.90
16477;DHT22;8349;50.928;6.376;2022-12-18T12:50:28;0.80;99.90
16477;DHT22;8349;50.928;6.376;2022-12-18T12:53:00;0.70;99.90
16477;DHT22;8349;50.928;6.376;2022-12-18T12:55:27;0.70;99.90
16477;DHT22;8349;50.928;6.376;2022-12-18T12:57:58;0.70;99.90
16477;DHT22;8349;50.928;6.376;2022-12-18T13:00:26;0.70;99.90
16477;DHT22;8349;50.928;6.376;2022-12-18T13:02:56;0.70;99.90
16477;DHT22;8349;50.928;6.376;2022-12-18T13:05:26;0.60;99.90
16477;DHT22;8349;50.928;6.376;2022-12-18T13:07:56;0.60;99.90
16477;DHT22;8349;50.928;6.376;2022-12-18T13:10:25;0.60;99.90
16477;DHT22;8349;50.928;6.376;2022-12-18T13:12:53;0.60;99.90
16477;DHT22;8349;50.928;6.376;2022-12-18T13:15:24;0.60;99.90
16477;DHT22;8349;50.928;6.376;2022-12-18T13:18:13;0.50;99.90
16477;DHT22;8349;50.928;6.376;2022-12-18T13:20:41;0.50;99.90
16477;DHT22;8349;50.928;6.376;2022-12-18T13:23:28;0.50;99.90
16477;DHT22;8349;50.928;6.376;2022-12-18T13:25:56;0.50;99.90
16477;DHT22;8349;50.928;6.376;2022-12-18T13:28:23;0.40;99.90
16477;DHT22;8349;50.928;6.376;2022-12-18T13:30:53;0.40;99.90
16477;DHT22;8349;50.928;6.376;2022-12-18T13:39:10;0.30;99.90
16477;DHT22;8349;50.928;6.376;2022-12-18T13:41:37;0.30;99.90
16477;DHT22;8349;50.928;6.376;2022-12-18T13:44:10;0.20;99.90
16477;DHT22;8349;50.928;6.376;2022-12-18T13:46:43;0.20;99.90
16477;DHT22;8349;50.928;6.376;2022-12-18T13:49:17;0.10;99.90
16477;DHT22;8349;50.928;6.376;2022-12-18T13:51:47;0.10;99.90
16477;DHT22;8349;50.928;6.376;2022-12-18T13:54:17;0.00;99.90
16477;DHT22;8349;50.928;6.376;2022-12-18T13:56:46;0.00;99.90
16477;DHT22;8349;50.928;6.376;2022-12-18T13:59:17;-0.10;99.90
16477;DHT22;8349;50.928;6.376;2022-12-18T14:01:47;-0.10;99.90
16477;DHT22;8349;50.928;6.376;2022-12-18T14:04:22;-0.10;99.90
16477;DHT22;8349;50.928;6.376;2022-12-18T14:06:50;-0.20;99.90
16477;DHT22;8349;50.928;6.376;2022-12-18T14:09:17;-0.20;99.90
16477;DHT22;8349;50.928;6.376;2022-12-18T14:11:46;-0.20;99.90
16477;DHT22;8349;50.928;6.376;2022-12-18T14:14:14;-0.30;99.90
16477;DHT22;8349;50.928;6.376;2022-12-18T14:16:41;-0.30;99.90
16477;DHT22;8349;50.928;6.376;2022-12-18T14:19:09;-0.30;99.90
16477;DHT22;8349;50.928;6.376;2022-12-18T14:21:38;-0.30;99.90
16477;DHT22;8349;50.928;6.376;2022-12-18T14:24:06;-0.30;99.90
16477;DHT22;8349;50.928;6.376;2022-12-18T14:26:38;-0.30;99.90
16477;DHT22;8349;50.928;6.376;2022-12-18T14:29:18;-0.30;99.90
16477;DHT22;8349;50.928;6.376;2022-12-18T14:31:45;-0.30;99.90
16477;DHT22;8349;50.928;6.376;2022-12-18T14:34:16;-0.30;99.90
16477;DHT22;8349;50.928;6.376;2022-12-18T14:36:51;-0.30;99.90
16477;DHT22;8349;50.928;6.376;2022-12-18T14:39:18;-0.30;99.90
16477;DHT22;8349;50.928;6.376;2022-12-18T14:41:45;-0.40;99.90
16477;DHT22;8349;50.928;6.376;2022-12-18T14:44:12;-0.40;99.90
16477;DHT22;8349;50.928;6.376;2022-12-18T14:46:42;-0.40;99.90
16477;DHT22;8349;50.928;6.376;2022-12-18T14:49:18;-0.50;99.90
16477;DHT22;8349;50.928;6.376;2022-12-18T14:51:46;-0.50;99.90
16477;DHT22;8349;50.928;6.376;2022-12-18T14:54:14;-0.50;99.90
16477;DHT22;8349;50.928;6.376;2022-12-18T14:56:42;-0.50;99.90
16477;DHT22;8349;50.928;6.376;2022-12-18T14:59:12;-0.50;99.90
16477;DHT22;8349;50.928;6.376;2022-12-18T15:01:44;-0.50;99.90
16477;DHT22;8349;50.928;6.376;2022-12-18T15:04:22;-0.60;99.90
16477;DHT22;8349;50.928;6.376;2022-12-18T15:06:50;-0.60;99.90
16477;DHT22;8349;50.928;6.376;2022-12-18T15:09:28;-0.60;99.90
16477;DHT22;8349;50.928;6.376;2022-12-18T15:11:56;-0.60;99.90
16477;DHT22;8349;50.928;6.376;2022-12-18T15:14:33;-0.70;99.90
16477;DHT22;8349;50.928;6.376;2022-12-18T15:17:00;-0.70;99.90
16477;DHT22;8349;50.928;6.376;2022-12-18T15:19:32;-0.80;99.90
16477;DHT22;8349;50.928;6.376;2022-12-18T15:22:00;-0.80;99.90
16477;DHT22;8349;50.928;6.376;2022-12-18T15:24:29;-0.80;99.90
16477;DHT22;8349;50.928;6.376;2022-12-18T15:26:57;-0.80;99.90
16477;DHT22;8349;50.928;6.376;2022-12-18T15:29:24;-0.80;99.90
16477;DHT22;8349;50.928;6.376;2022-12-18T15:31:58;-0.80;99.90
16477;DHT22;8349;50.928;6.376;2022-12-18T15:34:25;-0.90;99.90
16477;DHT22;8349;50.928;6.376;2022-12-18T15:36:54;-0.90;99.90
16477;DHT22;8349;50.928;6.376;2022-12-18T15:39:21;-0.90;99.90
16477;DHT22;8349;50.928;6.376;2022-12-18T15:41:48;-0.90;99.90
16477;DHT22;8349;50.928;6.376;2022-12-18T15:44:32;-1.00;99.90
16477;DHT22;8349;50.928;6.376;2022-12-18T15:46:59;-1.00;99.90
16477;DHT22;8349;50.928;6.376;2022-12-18T15:49:26;-1.00;99.90
16477;DHT22;8349;50.928;6.376;2022-12-18T15:51:53;-1.00;99.90
16477;DHT22;8349;50.928;6.376;2022-12-18T15:54:21;-1.00;99.90
16477;DHT22;8349;50.928;6.376;2022-12-18T15:57:09;-1.00;99.90
16477;DHT22;8349;50.928;6.376;2022-12-18T15:59:50;-1.00;99.90
16477;DHT22;8349;50.928;6.376;2022-12-18T16:02:18;-1.10;99.90
16477;DHT22;8349;50.928;6.376;2022-12-18T16:04:45;-1.10;99.90
16477;DHT22;8349;50.928;6.376;2022-12-18T16:07:12;-1.20;99.90
16477;DHT22;8349;50.928;6.376;2022-12-18T16:09:40;-1.20;99.90
16477;DHT22;8349;50.928;6.376;2022-12-18T16:12:09;-1.10;99.90
16477;DHT22;8349;50.928;6.376;2022-12-18T16:14:37;-1.10;99.90
16477;DHT22;8349;50.928;6.376;2022-12-18T16:17:05;-1.10;99.90
16477;DHT22;8349;50.928;6.376;2022-12-18T16:19:35;-1.10;99.90
16477;DHT22;8349;50.928;6.376;2022-12-18T16:22:01;-1.10;99.90
16477;DHT22;8349;50.928;6.376;2022-12-18T16:24:29;-1.10;99.90
16477;DHT22;8349;50.928;6.376;2022-12-18T16:26:57;-1.10;99.90
16477;DHT22;8349;50.928;6.376;2022-12-18T16:29:25;-1.20;99.90
16477;DHT22;8349;50.928;6.376;2022-12-18T16:31:52;-1.20;99.90
16477;DHT22;8349;50.928;6.376;2022-12-18T16:34:20;-1.20;99.90
16477;DHT22;8349;50.928;6.376;2022-12-18T16:36:47;-1.20;99.90
16477;DHT22;8349;50.928;6.376;2022-12-18T16:39:14;-1.20;99.90
16477;DHT22;8349;50.928;6.376;2022-12-18T16:41:40;-1.20;99.90
16477;DHT22;8349;50.928;6.376;2022-12-18T16:44:09;-1.20;99.90
16477;DHT22;8349;50.928;6.376;2022-12-18T16:46:35;-1.20;99.90
16477;DHT22;8349;50.928;6.376;2022-12-18T16:49:02;-1.20;99.90
16477;DHT22;8349;50.928;6.376;2022-12-18T16:51:29;-1.20;99.90
16477;DHT22;8349;50.928;6.376;2022-12-18T16:53:56;-1.20;99.90
16477;DHT22;8349;50.928;6.376;2022-12-18T16:56:23;-1.20;99.90
16477;DHT22;8349;50.928;6.376;2022-12-18T16:58:50;-1.20;99.90
16477;DHT22;8349;50.928;6.376;2022-12-18T17:01:18;-1.10;99.90
16477;DHT22;8349;50.928;6.376;2022-12-18T17:03:50;-1.10;99.90
16477;DHT22;8349;50.928;6.376;2022-12-18T17:06:17;-1.10;99.90
16477;DHT22;8349;50.928;6.376;2022-12-18T17:08:43;-1.00;99.90
16477;DHT22;8349;50.928;6.376;2022-12-18T17:11:10;-1.00;99.90
16477;DHT22;8349;50.928;6.376;2022-12-18T17:13:37;-0.90;99.90
16477;DHT22;8349;50.928;6.376;2022-12-18T17:16:04;-1.00;99.90
16477;DHT22;8349;50.928;6.376;2022-12-18T17:18:33;-1.10;99.90
16477;DHT22;8349;50.928;6.376;2022-12-18T17:21:00;-1.10;99.90
16477;DHT22;8349;50.928;6.376;2022-12-18T17:23:27;-1.10;99.90
16477;DHT22;8349;50.928;6.376;2022-12-18T17:25:54;-1.20;99.90
16477;DHT22;8349;50.928;6.376;2022-12-18T17:28:21;-1.20;99.90
16477;DHT22;8349;50.928;6.376;2022-12-18T17:30:48;-1.20;99.90
16477;DHT22;8349;50.928;6.376;2022-12-18T17:33:15;-1.20;99.90
16477;DHT22;8349;50.928;6.376;2022-12-18T17:35:43;-1.20;99.90
16477;DHT22;8349;50.928;6.376;2022-12-18T17:38:10;-1.20;99.90
16477;DHT22;8349;50.928;6.376;2022-12-18T17:40:37;-1.20;99.90
16477;DHT22;8349;50.928;6.376;2022-12-18T17:43:05;-1.20;99.90
16477;DHT22;8349;50.928;6.376;2022-12-18T17:45:33;-1.10;99.90
16477;DHT22;8349;50.928;6.376;2022-12-18T17:48:00;-1.10;99.90
16477;DHT22;8349;50.928;6.376;2022-12-18T17:50:27;-1.10;99.90
16477;DHT22;8349;50.928;6.376;2022-12-18T17:52:55;-1.10;99.90
16477;DHT22;8349;50.928;6.376;2022-12-18T17:56:49;-1.00;99.90
16477;DHT22;8349;50.928;6.376;2022-12-18T17:59:15;-1.00;99.90
16477;DHT22;8349;50.928;6.376;2022-12-18T18:01:42;-1.00;99.90
16477;DHT22;8349;50.928;6.376;2022-12-18T18:04:08;-1.00;99.90
16477;DHT22;8349;50.928;6.376;2022-12-18T18:06:35;-1.00;99.90
16477;DHT22;8349;50.928;6.376;2022-12-18T18:09:02;-0.90;99.90
16477;DHT22;8349;50.928;6.376;2022-12-18T18:11:28;-0.90;99.90
16477;DHT22;8349;50.928;6.376;2022-12-18T18:14:15;-0.90;99.90
16477;DHT22;8349;50.928;6.376;2022-12-18T18:16:43;-0.80;99.90
16477;DHT22;8349;50.928;6.376;2022-12-18T18:19:10;-0.80;99.90
16477;DHT22;8349;50.928;6.376;2022-12-18T18:21:38;-0.80;99.90
16477;DHT22;8349;50.928;6.376;2022-12-18T18:24:05;-0.70;99.90
16477;DHT22;8349;50.928;6.376;2022-12-18T18:26:33;-0.70;99.90
16477;DHT22;8349;50.928;6.376;2022-12-18T18:29:00;-0.70;99.90
16477;DHT22;8349;50.928;6.376;2022-12-18T18:31:28;-0.60;99.90
16477;DHT22;8349;50.928;6.376;2022-12-18T18:33:56;-0.60;99.90
16477;DHT22;8349;50.928;6.376;2022-12-18T18:36:23;-0.60;99.90
16477;DHT22;8349;50.928;6.376;2022-12-18T18:38:50;-0.60;99.90
16477;DHT22;8349;50.928;6.376;2022-12-18T18:41:17;-0.60;99.90
16477;DHT22;8349;50.928;6.376;2022-12-18T18:43:44;-0.50;99.90
16477;DHT22;8349;50.928;6.376;2022-12-18T18:46:11;-0.50;99.90
16477;DHT22;8349;50.928;6.376;2022-12-18T18:48:40;-0.40;99.90
16477;DHT22;8349;50.928;6.376;2022-12-18T18:51:07;-0.40;99.90
16477;DHT22;8349;50.928;6.376;2022-12-18T18:53:34;-0.40;99.90
16477;DHT22;8349;50.928;6.376;2022-12-18T18:56:02;-0.40;99.90
16477;DHT22;8349;50.928;6.376;2022-12-18T18:58:29;-0.40;99.90
16477;DHT22;8349;50.928;6.376;2022-12-18T19:00:57;-0.30;99.90
16477;DHT22;8349;50.928;6.376;2022-12-18T19:03:24;-0.30;99.90
16477;DHT22;8349;50.928;6.376;2022-12-18T19:05:54;-0.30;99.90
16477;DHT22;8349;50.928;6.376;2022-12-18T19:08:23;-0.40;99.90
16477;DHT22;8349;50.928;6.376;2022-12-18T19:10:51;-0.40;99.90
16477;DHT22;8349;50.928;6.376;2022-12-18T19:13:18;-0.40;99.90
16477;DHT22;8349;50.928;6.376;2022-12-18T19:15:48;-0.30;99.90
16477;DHT22;8349;50.928;6.376;2022-12-18T19:18:15;-0.30;99.90
16477;DHT22;8349;50.928;6.376;2022-12-18T19:20:42;-0.30;99.90
16477;DHT22;8349;50.928;6.376;2022-12-18T19:23:10;-0.30;99.90
16477;DHT22;8349;50.928;6.376;2022-12-18T19:25:37;-0.30;99.90
16477;DHT22;8349;50.928;6.376;2022-12-18T19:28:04;-0.30;99.90
16477;DHT22;8349;50.928;6.376;2022-12-18T19:30:31;-0.30;99.90
16477;DHT22;8349;50.928;6.376;2022-12-18T19:32:58;-0.40;99.90
16477;DHT22;8349;50.928;6.376;2022-12-18T19:35:25;-0.40;99.90
16477;DHT22;8349;50.928;6.376;2022-12-18T19:37:54;-0.40;99.90
16477;DHT22;8349;50.928;6.376;2022-12-18T19:40:22;-0.40;99.90
16477;DHT22;8349;50.928;6.376;2022-12-18T19:42:49;-0.40;99.90
16477;DHT22;8349;50.928;6.376;2022-12-18T19:45:16;-0.40;99.90
16477;DHT22;8349;50.928;6.376;2022-12-18T19:47:43;-0.50;99.90
16477;DHT22;8349;50.928;6.376;2022-12-18T19:50:10;-0.40;99.90
16477;DHT22;8349;50.928;6.376;2022-12-18T19:52:36;-0.50;99.90
16477;DHT22;8349;50.928;6.376;2022-12-18T19:55:03;-0.50;99.90
16477;DHT22;8349;50.928;6.376;2022-12-18T19:57:32;-0.40;99.90
16477;DHT22;8349;50.928;6.376;2022-12-18T19:59:58;-0.40;99.90
16477;DHT22;8349;50.928;6.376;2022-12-18T20:02:25;-0.40;99.90
16477;DHT22;8349;50.928;6.376;2022-12-18T20:04:52;-0.40;99.90
16477;DHT22;8349;50.928;6.376;2022-12-18T20:07:19;-0.40;99.90